sensor_id;sensor_type;location;lat;lon;timestamp;P1;durP1;ratioP1;P2;durP2;ratioP2
11034;SDS011;5571;48.110;-1.706;2023-02-05T00:00:00;16.30;;;10.50;;
11034;SDS011;5571;48.110;-1.706;2023-02-05T00:02:26;17.40;;;10.20;;
11034;SDS011;5571;48.110;-1.706;2023-02-05T00:04:51;18.27;;;10.97;;
11034;SDS011;5571;48.110;-1.706;2023-02-05T00:07:17;13.13;;;10.03;;
11034;SDS011;5571;48.110;-1.706;2023-02-05T00:09:43;19.23;;;10.57;;
11034;SDS011;5571;48.110;-1.706;2023-02-05T00:12:09;13.47;;;9.90;;
11034;SDS011;5571;48.110;-1.706;2023-02-05T00:14:34;19.97;;;10.00;;
11034;SDS011;5571;48.110;-1.706;2023-02-05T00:17:00;20.58;;;13.80;;
11034;SDS011;5571;48.110;-1.706;2023-02-05T00:19:25;19.63;;;14.30;;
11034;SDS011;5571;48.110;-1.706;2023-02-05T00:21:51;23.70;;;12.27;;
11034;SDS011;5571;48.110;-1.706;2023-02-05T00:24:17;12.80;;;10.53;;
11034;SDS011;5571;48.110;-1.706;2023-02-05T00:26:42;22.73;;;10.77;;
11034;SDS011;5571;48.110;-1.706;2023-02-05T00:29:08;17.00;;;10.47;;
11034;SDS011;5571;48.110;-1.706;2023-02-05T00:31:34;16.67;;;10.50;;
11034;SDS011;5571;48.110;-1.706;2023-02-05T00:33:59;18.00;;;10.00;;
11034;SDS011;5571;48.110;-1.706;2023-02-05T00:36:25;17.80;;;10.40;;
11034;SDS011;5571;48.110;-1.706;2023-02-05T00:38:51;17.03;;;9.70;;
11034;SDS011;5571;48.110;-1.706;2023-02-05T00:41:17;18.03;;;9.63;;
11034;SDS011;5571;48.110;-1.706;2023-02-05T00:43:43;14.57;;;9.40;;
11034;SDS011;5571;48.110;-1.706;2023-02-05T00:46:10;14.70;;;9.17;;
11034;SDS011;5571;48.110;-1.706;2023-02-05T00:48:36;19.10;;;9.37;;
11034;SDS011;5571;48.110;-1.706;2023-02-05T00:51:02;16.93;;;9.33;;
11034;SDS011;5571;48.110;-1.706;2023-02-05T00:53:28;15.63;;;8.70;;
11034;SDS011;5571;48.110;-1.706;2023-02-05T00:55:53;16.80;;;9.33;;
11034;SDS011;5571;48.110;-1.706;2023-02-05T00:58:19;11.80;;;8.47;;
11034;SDS011;5571;48.110;-1.706;2023-02-05T01:00:45;18.13;;;9.27;;
11034;SDS011;5571;48.110;-1.706;2023-02-05T01:03:11;12.33;;;9.20;;
11034;SDS011;5571;48.110;-1.706;2023-02-05T01:05:37;17.63;;;9.50;;
11034;SDS011;5571;48.110;-1.706;2023-02-05T01:08:04;13.60;;;9.03;;
11034;SDS011;5571;48.110;-1.706;2023-02-05T01:10:31;11.57;;;8.30;;
11034;SDS011;5571;48.110;-1.706;2023-02-05T01:12:56;28.33;;;18.37;;
11034;SDS011;5571;48.110;-1.706;2023-02-05T01:15:22;40.80;;;22.50;;
11034;SDS011;5571;48.110;-1.706;2023-02-05T01:17:48;17.63;;;11.30;;
11034;SDS011;5571;48.110;-1.706;2023-02-05T01:20:14;16.37;;;10.47;;
11034;SDS011;5571;48.110;-1.706;2023-02-05T01:22:41;23.60;;;13.57;;
11034;SDS011;5571;48.110;-1.706;2023-02-05T01:25:07;18.90;;;11.70;;
11034;SDS011;5571;48.110;-1.706;2023-02-05T01:27:33;20.97;;;10.07;;
11034;SDS011;5571;48.110;-1.706;2023-02-05T01:30:00;16.43;;;9.50;;
11034;SDS011;5571;48.110;-1.706;2023-02-05T01:32:26;13.10;;;8.97;;
11034;SDS011;5571;48.110;-1.706;2023-02-05T01:34:53;15.77;;;9.30;;
11034;SDS011;5571;48.110;-1.706;2023-02-05T01:37:18;25.50;;;16.70;;
11034;SDS011;5571;48.110;-1.706;2023-02-05T01:39:44;21.77;;;15.53;;
11034;SDS011;5571;48.110;-1.706;2023-02-05T01:42:14;18.63;;;13.80;;
11034;SDS011;5571;48.110;-1.706;2023-02-05T01:45:19;17.37;;;11.50;;
11034;SDS011;5571;48.110;-1.706;2023-02-05T01:47:45;19.27;;;9.90;;
11034;SDS011;5571;48.110;-1.706;2023-02-05T01:50:20;12.83;;;9.53;;
11034;SDS011;5571;48.110;-1.706;2023-02-05T01:53:09;12.93;;;9.83;;
11034;SDS011;5571;48.110;-1.706;2023-02-05T01:55:39;15.87;;;10.30;;
11034;SDS011;5571;48.110;-1.706;2023-02-05T01:58:12;11.73;;;9.37;;
11034;SDS011;5571;48.110;-1.706;2023-02-05T02:00:38;16.03;;;10.10;;
11034;SDS011;5571;48.110;-1.706;2023-02-05T02:03:04;20.70;;;10.10;;
11034;SDS011;5571;48.110;-1.706;2023-02-05T02:05:30;14.83;;;9.97;;
11034;SDS011;5571;48.110;-1.706;2023-02-05T02:07:56;13.77;;;9.73;;
11034;SDS011;5571;48.110;-1.706;2023-02-05T02:10:21;17.13;;;10.17;;
11034;SDS011;5571;48.110;-1.706;2023-02-05T02:12:49;12.93;;;9.00;;
11034;SDS011;5571;48.110;-1.706;2023-02-05T02:15:18;14.70;;;9.60;;
11034;SDS011;5571;48.110;-1.706;2023-02-05T02:17:49;12.63;;;9.40;;
11034;SDS011;5571;48.110;-1.706;2023-02-05T02:20:18;11.70;;;8.57;;
11034;SDS011;5571;48.110;-1.706;2023-02-05T02:35:42;13.37;;;7.47;;
11034;SDS011;5571;48.110;-1.706;2023-02-05T02:38:21;10.60;;;7.60;;
11034;SDS011;5571;48.110;-1.706;2023-02-05T02:43:56;10.43;;;7.40;;
11034;SDS011;5571;48.110;-1.706;2023-02-05T02:48:53;11.10;;;8.00;;
11034;SDS011;5571;48.110;-1.706;2023-02-05T02:51:20;14.13;;;7.60;;
11034;SDS011;5571;48.110;-1.706;2023-02-05T02:53:49;11.83;;;7.00;;
11034;SDS011;5571;48.110;-1.706;2023-02-05T02:56:18;13.60;;;7.57;;
11034;SDS011;5571;48.110;-1.706;2023-02-05T02:58:50;11.03;;;7.43;;
11034;SDS011;5571;48.110;-1.706;2023-02-05T03:01:21;8.27;;;6.67;;
11034;SDS011;5571;48.110;-1.706;2023-02-05T03:03:59;12.33;;;6.70;;
11034;SDS011;5571;48.110;-1.706;2023-02-05T03:06:30;10.00;;;6.53;;
11034;SDS011;5571;48.110;-1.706;2023-02-05T03:09:03;10.33;;;7.17;;
11034;SDS011;5571;48.110;-1.706;2023-02-05T03:11:34;10.17;;;6.43;;
11034;SDS011;5571;48.110;-1.706;2023-02-05T03:14:00;13.67;;;7.10;;
11034;SDS011;5571;48.110;-1.706;2023-02-05T03:16:27;10.43;;;6.53;;
11034;SDS011;5571;48.110;-1.706;2023-02-05T03:18:53;8.37;;;6.90;;
11034;SDS011;5571;48.110;-1.706;2023-02-05T03:21:53;14.83;;;7.33;;
11034;SDS011;5571;48.110;-1.706;2023-02-05T03:24:13;11.60;;;6.90;;
11034;SDS011;5571;48.110;-1.706;2023-02-05T03:26:38;13.63;;;7.27;;
11034;SDS011;5571;48.110;-1.706;2023-02-05T03:29:05;11.20;;;6.97;;
11034;SDS011;5571;48.110;-1.706;2023-02-05T03:42:55;12.40;;;8.00;;
11034;SDS011;5571;48.110;-1.706;2023-02-05T03:54:17;11.57;;;7.83;;
11034;SDS011;5571;48.110;-1.706;2023-02-05T03:57:34;17.73;;;7.77;;
11034;SDS011;5571;48.110;-1.706;2023-02-05T03:59:40;15.87;;;7.80;;
11034;SDS011;5571;48.110;-1.706;2023-02-05T04:02:07;14.90;;;8.03;;
11034;SDS011;5571;48.110;-1.706;2023-02-05T04:04:33;14.60;;;7.73;;
11034;SDS011;5571;48.110;-1.706;2023-02-05T04:06:58;23.43;;;8.13;;
11034;SDS011;5571;48.110;-1.706;2023-02-05T04:09:26;13.63;;;7.83;;
11034;SDS011;5571;48.110;-1.706;2023-02-05T04:11:52;12.17;;;7.73;;
11034;SDS011;5571;48.110;-1.706;2023-02-05T04:14:17;20.57;;;8.03;;
11034;SDS011;5571;48.110;-1.706;2023-02-05T04:16:43;13.63;;;7.50;;
11034;SDS011;5571;48.110;-1.706;2023-02-05T04:19:09;16.57;;;7.80;;
11034;SDS011;5571;48.110;-1.706;2023-02-05T04:21:34;14.33;;;7.73;;
11034;SDS011;5571;48.110;-1.706;2023-02-05T04:24:01;15.30;;;7.93;;
11034;SDS011;5571;48.110;-1.706;2023-02-05T04:26:26;11.30;;;7.43;;
11034;SDS011;5571;48.110;-1.706;2023-02-05T04:28:52;13.00;;;6.93;;
11034;SDS011;5571;48.110;-1.706;2023-02-05T04:31:18;17.47;;;7.53;;
11034;SDS011;5571;48.110;-1.706;2023-02-05T04:33:43;11.67;;;7.90;;
11034;SDS011;5571;48.110;-1.706;2023-02-05T04:36:09;15.23;;;7.30;;
11034;SDS011;5571;48.110;-1.706;2023-02-05T04:38:35;11.97;;;7.40;;
11034;SDS011;5571;48.110;-1.706;2023-02-05T04:41:01;12.77;;;7.90;;
11034;SDS011;5571;48.110;-1.706;2023-02-05T04:43:26;11.93;;;7.30;;
11034;SDS011;5571;48.110;-1.706;2023-02-05T04:45:52;19.53;;;7.70;;
11034;SDS011;5571;48.110;-1.706;2023-02-05T04:48:17;12.97;;;7.50;;
11034;SDS011;5571;48.110;-1.706;2023-02-05T04:50:45;13.47;;;7.80;;
11034;SDS011;5571;48.110;-1.706;2023-02-05T04:53:10;15.37;;;6.90;;
11034;SDS011;5571;48.110;-1.706;2023-02-05T04:55:36;11.70;;;7.10;;
11034;SDS011;5571;48.110;-1.706;2023-02-05T04:58:02;12.20;;;7.60;;
11034;SDS011;5571;48.110;-1.706;2023-02-05T05:00:28;11.53;;;7.13;;
11034;SDS011;5571;48.110;-1.706;2023-02-05T05:02:53;16.93;;;7.57;;
11034;SDS011;5571;48.110;-1.706;2023-02-05T05:05:19;11.80;;;7.10;;
11034;SDS011;5571;48.110;-1.706;2023-02-05T05:07:45;14.30;;;7.20;;
11034;SDS011;5571;48.110;-1.706;2023-02-05T05:10:12;12.10;;;7.20;;
11034;SDS011;5571;48.110;-1.706;2023-02-05T05:12:38;11.43;;;7.10;;
11034;SDS011;5571;48.110;-1.706;2023-02-05T05:15:05;15.07;;;6.83;;
11034;SDS011;5571;48.110;-1.706;2023-02-05T05:17:33;14.43;;;8.20;;
11034;SDS011;5571;48.110;-1.706;2023-02-05T05:19:58;15.07;;;6.63;;
11034;SDS011;5571;48.110;-1.706;2023-02-05T05:22:24;14.37;;;7.37;;
11034;SDS011;5571;48.110;-1.706;2023-02-05T05:24:50;9.43;;;7.03;;
11034;SDS011;5571;48.110;-1.706;2023-02-05T05:27:16;19.20;;;6.87;;
11034;SDS011;5571;48.110;-1.706;2023-02-05T05:29:42;10.70;;;6.90;;
11034;SDS011;5571;48.110;-1.706;2023-02-05T05:32:10;13.23;;;6.90;;
11034;SDS011;5571;48.110;-1.706;2023-02-05T05:34:36;11.93;;;6.90;;
11034;SDS011;5571;48.110;-1.706;2023-02-05T05:37:02;9.70;;;6.77;;
11034;SDS011;5571;48.110;-1.706;2023-02-05T05:39:27;9.77;;;6.30;;
11034;SDS011;5571;48.110;-1.706;2023-02-05T05:42:12;11.17;;;6.63;;
11034;SDS011;5571;48.110;-1.706;2023-02-05T05:44:56;11.53;;;6.20;;
11034;SDS011;5571;48.110;-1.706;2023-02-05T05:47:22;11.33;;;6.60;;
11034;SDS011;5571;48.110;-1.706;2023-02-05T05:49:48;13.33;;;6.60;;
11034;SDS011;5571;48.110;-1.706;2023-02-05T05:52:14;12.47;;;6.93;;
11034;SDS011;5571;48.110;-1.706;2023-02-05T05:54:39;10.93;;;6.73;;
11034;SDS011;5571;48.110;-1.706;2023-02-05T05:57:05;11.97;;;6.40;;
11034;SDS011;5571;48.110;-1.706;2023-02-05T05:59:31;16.23;;;7.03;;
11034;SDS011;5571;48.110;-1.706;2023-02-05T06:01:57;11.83;;;6.30;;
11034;SDS011;5571;48.110;-1.706;2023-02-05T06:04:24;15.50;;;6.50;;
11034;SDS011;5571;48.110;-1.706;2023-02-05T06:06:50;10.13;;;6.07;;
11034;SDS011;5571;48.110;-1.706;2023-02-05T06:09:15;10.17;;;6.17;;
11034;SDS011;5571;48.110;-1.706;2023-02-05T06:11:41;12.17;;;7.00;;
11034;SDS011;5571;48.110;-1.706;2023-02-05T06:14:06;9.97;;;6.13;;
11034;SDS011;5571;48.110;-1.706;2023-02-05T06:16:32;9.33;;;6.40;;
11034;SDS011;5571;48.110;-1.706;2023-02-05T06:18:57;11.97;;;8.60;;
11034;SDS011;5571;48.110;-1.706;2023-02-05T06:21:23;19.33;;;11.17;;
11034;SDS011;5571;48.110;-1.706;2023-02-05T06:23:49;15.90;;;7.90;;
11034;SDS011;5571;48.110;-1.706;2023-02-05T06:26:14;11.73;;;7.03;;
11034;SDS011;5571;48.110;-1.706;2023-02-05T06:28:40;13.07;;;6.70;;
11034;SDS011;5571;48.110;-1.706;2023-02-05T06:31:05;14.83;;;6.80;;
11034;SDS011;5571;48.110;-1.706;2023-02-05T06:33:31;12.03;;;6.57;;
11034;SDS011;5571;48.110;-1.706;2023-02-05T06:35:58;12.23;;;6.47;;
11034;SDS011;5571;48.110;-1.706;2023-02-05T06:38:23;7.93;;;6.13;;
11034;SDS011;5571;48.110;-1.706;2023-02-05T06:40:49;13.60;;;6.47;;
11034;SDS011;5571;48.110;-1.706;2023-02-05T06:43:14;11.33;;;6.57;;
11034;SDS011;5571;48.110;-1.706;2023-02-05T06:45:40;8.40;;;6.30;;
11034;SDS011;5571;48.110;-1.706;2023-02-05T06:48:06;11.10;;;5.97;;
11034;SDS011;5571;48.110;-1.706;2023-02-05T06:50:31;10.33;;;5.73;;
11034;SDS011;5571;48.110;-1.706;2023-02-05T06:52:57;9.60;;;5.87;;
11034;SDS011;5571;48.110;-1.706;2023-02-05T06:55:22;14.67;;;6.23;;
11034;SDS011;5571;48.110;-1.706;2023-02-05T06:57:48;9.50;;;6.03;;
11034;SDS011;5571;48.110;-1.706;2023-02-05T07:00:14;9.83;;;6.17;;
11034;SDS011;5571;48.110;-1.706;2023-02-05T07:02:40;14.40;;;6.30;;
11034;SDS011;5571;48.110;-1.706;2023-02-05T07:05:06;9.23;;;6.17;;
11034;SDS011;5571;48.110;-1.706;2023-02-05T07:07:32;11.43;;;6.13;;
11034;SDS011;5571;48.110;-1.706;2023-02-05T07:09:58;9.70;;;5.63;;
11034;SDS011;5571;48.110;-1.706;2023-02-05T07:12:23;6.73;;;5.73;;
11034;SDS011;5571;48.110;-1.706;2023-02-05T07:14:49;15.37;;;6.20;;
11034;SDS011;5571;48.110;-1.706;2023-02-05T07:17:15;7.77;;;5.70;;
11034;SDS011;5571;48.110;-1.706;2023-02-05T07:19:40;7.77;;;5.77;;
11034;SDS011;5571;48.110;-1.706;2023-02-05T07:22:06;12.20;;;6.00;;
11034;SDS011;5571;48.110;-1.706;2023-02-05T07:24:31;10.20;;;6.07;;
11034;SDS011;5571;48.110;-1.706;2023-02-05T07:26:57;10.60;;;5.70;;
11034;SDS011;5571;48.110;-1.706;2023-02-05T07:29:23;12.13;;;6.10;;
11034;SDS011;5571;48.110;-1.706;2023-02-05T07:31:49;14.00;;;6.07;;
11034;SDS011;5571;48.110;-1.706;2023-02-05T07:34:15;13.13;;;5.83;;
11034;SDS011;5571;48.110;-1.706;2023-02-05T07:36:41;10.10;;;5.73;;
11034;SDS011;5571;48.110;-1.706;2023-02-05T07:39:06;9.07;;;5.63;;
11034;SDS011;5571;48.110;-1.706;2023-02-05T07:41:32;8.33;;;6.17;;
11034;SDS011;5571;48.110;-1.706;2023-02-05T07:43:58;8.27;;;5.53;;
11034;SDS011;5571;48.110;-1.706;2023-02-05T07:46:24;13.90;;;6.33;;
11034;SDS011;5571;48.110;-1.706;2023-02-05T07:48:49;16.03;;;6.40;;
11034;SDS011;5571;48.110;-1.706;2023-02-05T07:51:16;11.13;;;6.33;;
11034;SDS011;5571;48.110;-1.706;2023-02-05T07:53:44;11.90;;;6.47;;
11034;SDS011;5571;48.110;-1.706;2023-02-05T07:56:10;9.80;;;6.30;;
11034;SDS011;5571;48.110;-1.706;2023-02-05T07:58:35;10.27;;;6.47;;
11034;SDS011;5571;48.110;-1.706;2023-02-05T08:01:01;10.83;;;6.57;;
11034;SDS011;5571;48.110;-1.706;2023-02-05T08:03:28;13.57;;;7.20;;
11034;SDS011;5571;48.110;-1.706;2023-02-05T08:05:54;8.40;;;6.57;;
11034;SDS011;5571;48.110;-1.706;2023-02-05T08:08:19;12.10;;;6.87;;
11034;SDS011;5571;48.110;-1.706;2023-02-05T08:10:46;7.40;;;5.90;;
11034;SDS011;5571;48.110;-1.706;2023-02-05T08:13:12;12.37;;;6.90;;
11034;SDS011;5571;48.110;-1.706;2023-02-05T08:15:38;9.03;;;6.57;;
11034;SDS011;5571;48.110;-1.706;2023-02-05T08:18:05;13.87;;;7.67;;
11034;SDS011;5571;48.110;-1.706;2023-02-05T08:20:31;11.20;;;7.07;;
11034;SDS011;5571;48.110;-1.706;2023-02-05T08:22:56;14.13;;;8.43;;
11034;SDS011;5571;48.110;-1.706;2023-02-05T08:25:22;15.53;;;9.80;;
11034;SDS011;5571;48.110;-1.706;2023-02-05T08:27:48;15.53;;;9.27;;
11034;SDS011;5571;48.110;-1.706;2023-02-05T08:30:14;19.30;;;9.73;;
11034;SDS011;5571;48.110;-1.706;2023-02-05T08:32:45;16.93;;;8.70;;
11034;SDS011;5571;48.110;-1.706;2023-02-05T08:35:13;17.53;;;8.33;;
11034;SDS011;5571;48.110;-1.706;2023-02-05T08:37:38;12.03;;;7.97;;
11034;SDS011;5571;48.110;-1.706;2023-02-05T08:40:04;12.70;;;8.20;;
11034;SDS011;5571;48.110;-1.706;2023-02-05T08:42:30;13.63;;;8.43;;
11034;SDS011;5571;48.110;-1.706;2023-02-05T08:44:56;13.10;;;9.30;;
11034;SDS011;5571;48.110;-1.706;2023-02-05T08:47:25;13.47;;;8.70;;
11034;SDS011;5571;48.110;-1.706;2023-02-05T08:49:52;12.83;;;7.80;;
11034;SDS011;5571;48.110;-1.706;2023-02-05T08:52:18;10.20;;;7.30;;
11034;SDS011;5571;48.110;-1.706;2023-02-05T08:54:44;12.53;;;7.70;;
11034;SDS011;5571;48.110;-1.706;2023-02-05T08:57:10;12.67;;;7.37;;
11034;SDS011;5571;48.110;-1.706;2023-02-05T08:59:36;12.97;;;7.37;;
11034;SDS011;5571;48.110;-1.706;2023-02-05T09:02:02;13.93;;;8.17;;
11034;SDS011;5571;48.110;-1.706;2023-02-05T09:04:29;10.20;;;7.70;;
11034;SDS011;5571;48.110;-1.706;2023-02-05T09:06:55;12.23;;;7.30;;
11034;SDS011;5571;48.110;-1.706;2023-02-05T09:09:21;12.97;;;7.53;;
11034;SDS011;5571;48.110;-1.706;2023-02-05T09:11:47;13.70;;;7.90;;
11034;SDS011;5571;48.110;-1.706;2023-02-05T09:14:12;10.57;;;7.30;;
11034;SDS011;5571;48.110;-1.706;2023-02-05T09:16:39;11.73;;;6.93;;
11034;SDS011;5571;48.110;-1.706;2023-02-05T09:19:05;12.70;;;7.20;;
11034;SDS011;5571;48.110;-1.706;2023-02-05T09:21:31;12.43;;;6.90;;
11034;SDS011;5571;48.110;-1.706;2023-02-05T09:23:57;9.13;;;6.70;;
11034;SDS011;5571;48.110;-1.706;2023-02-05T09:26:23;8.47;;;6.00;;
11034;SDS011;5571;48.110;-1.706;2023-02-05T09:28:49;8.60;;;5.87;;
11034;SDS011;5571;48.110;-1.706;2023-02-05T09:31:15;11.40;;;6.67;;
11034;SDS011;5571;48.110;-1.706;2023-02-05T09:33:43;11.33;;;6.33;;
11034;SDS011;5571;48.110;-1.706;2023-02-05T09:36:12;8.90;;;6.07;;
11034;SDS011;5571;48.110;-1.706;2023-02-05T09:38:39;10.17;;;5.93;;
11034;SDS011;5571;48.110;-1.706;2023-02-05T09:43:54;20.90;;;8.43;;
11034;SDS011;5571;48.110;-1.706;2023-02-05T09:46:44;13.27;;;6.17;;
11034;SDS011;5571;48.110;-1.706;2023-02-05T09:52:21;16.57;;;5.90;;
11034;SDS011;5571;48.110;-1.706;2023-02-05T09:54:53;18.43;;;6.20;;
11034;SDS011;5571;48.110;-1.706;2023-02-05T09:57:31;14.73;;;6.00;;
11034;SDS011;5571;48.110;-1.706;2023-02-05T10:05:32;14.67;;;5.97;;
11034;SDS011;5571;48.110;-1.706;2023-02-05T10:08:12;11.30;;;5.90;;
11034;SDS011;5571;48.110;-1.706;2023-02-05T10:10:49;13.63;;;6.07;;
11034;SDS011;5571;48.110;-1.706;2023-02-05T10:22:14;14.03;;;6.53;;
11034;SDS011;5571;48.110;-1.706;2023-02-05T10:26:56;15.23;;;6.60;;
11034;SDS011;5571;48.110;-1.706;2023-02-05T10:29:48;12.73;;;6.97;;
11034;SDS011;5571;48.110;-1.706;2023-02-05T10:32:34;17.10;;;7.30;;
11034;SDS011;5571;48.110;-1.706;2023-02-05T10:38:15;13.10;;;5.57;;
11034;SDS011;5571;48.110;-1.706;2023-02-05T10:40:46;13.30;;;5.17;;
11034;SDS011;5571;48.110;-1.706;2023-02-05T10:43:23;17.00;;;5.47;;
11034;SDS011;5571;48.110;-1.706;2023-02-05T10:46:13;11.47;;;5.07;;
11034;SDS011;5571;48.110;-1.706;2023-02-05T10:51:29;16.30;;;5.10;;
11034;SDS011;5571;48.110;-1.706;2023-02-05T10:54:00;13.43;;;4.83;;
11034;SDS011;5571;48.110;-1.706;2023-02-05T10:56:26;14.63;;;4.23;;
11034;SDS011;5571;48.110;-1.706;2023-02-05T10:58:56;8.47;;;4.30;;
11034;SDS011;5571;48.110;-1.706;2023-02-05T11:04:10;6.17;;;4.07;;
11034;SDS011;5571;48.110;-1.706;2023-02-05T11:06:40;6.30;;;3.70;;
11034;SDS011;5571;48.110;-1.706;2023-02-05T11:11:54;5.80;;;3.30;;
11034;SDS011;5571;48.110;-1.706;2023-02-05T11:14:40;8.30;;;3.00;;
11034;SDS011;5571;48.110;-1.706;2023-02-05T11:19:49;4.40;;;3.00;;
11034;SDS011;5571;48.110;-1.706;2023-02-05T11:22:28;5.83;;;3.00;;
11034;SDS011;5571;48.110;-1.706;2023-02-05T11:25:06;5.90;;;2.70;;
11034;SDS011;5571;48.110;-1.706;2023-02-05T11:27:40;4.47;;;3.00;;
11034;SDS011;5571;48.110;-1.706;2023-02-05T11:30:23;6.27;;;3.17;;
11034;SDS011;5571;48.110;-1.706;2023-02-05T11:32:55;6.83;;;3.37;;
11034;SDS011;5571;48.110;-1.706;2023-02-05T11:35:25;4.43;;;2.80;;
11034;SDS011;5571;48.110;-1.706;2023-02-05T11:40:39;4.90;;;2.50;;
11034;SDS011;5571;48.110;-1.706;2023-02-05T11:46:20;4.27;;;2.77;;
11034;SDS011;5571;48.110;-1.706;2023-02-05T11:54:19;3.63;;;3.00;;
11034;SDS011;5571;48.110;-1.706;2023-02-05T11:59:32;5.47;;;2.93;;
11034;SDS011;5571;48.110;-1.706;2023-02-05T12:02:24;5.70;;;3.27;;
11034;SDS011;5571;48.110;-1.706;2023-02-05T12:10:50;7.07;;;2.80;;
11034;SDS011;5571;48.110;-1.706;2023-02-05T12:19:19;3.93;;;2.60;;
11034;SDS011;5571;48.110;-1.706;2023-02-05T12:27:39;4.40;;;2.77;;
11034;SDS011;5571;48.110;-1.706;2023-02-05T12:33:10;4.70;;;2.23;;
11034;SDS011;5571;48.110;-1.706;2023-02-05T12:35:56;5.47;;;2.33;;
11034;SDS011;5571;48.110;-1.706;2023-02-05T12:43:37;7.80;;;2.63;;
11034;SDS011;5571;48.110;-1.706;2023-02-05T12:49:20;4.87;;;2.93;;
11034;SDS011;5571;48.110;-1.706;2023-02-05T12:52:00;4.87;;;2.90;;
11034;SDS011;5571;48.110;-1.706;2023-02-05T12:57:38;5.03;;;2.67;;
11034;SDS011;5571;48.110;-1.706;2023-02-05T13:03:06;7.47;;;2.70;;
11034;SDS011;5571;48.110;-1.706;2023-02-05T13:06:08;5.47;;;2.77;;
11034;SDS011;5571;48.110;-1.706;2023-02-05T13:13:47;4.57;;;2.77;;
11034;SDS011;5571;48.110;-1.706;2023-02-05T13:16:20;7.43;;;3.37;;
11034;SDS011;5571;48.110;-1.706;2023-02-05T13:18:53;5.63;;;3.07;;
11034;SDS011;5571;48.110;-1.706;2023-02-05T13:21:25;6.17;;;3.20;;
11034;SDS011;5571;48.110;-1.706;2023-02-05T13:30:14;5.60;;;2.50;;
11034;SDS011;5571;48.110;-1.706;2023-02-05T13:32:49;6.27;;;2.70;;
11034;SDS011;5571;48.110;-1.706;2023-02-05T13:35:18;4.43;;;2.50;;
11034;SDS011;5571;48.110;-1.706;2023-02-05T13:43:24;4.63;;;2.17;;
11034;SDS011;5571;48.110;-1.706;2023-02-05T13:46:07;6.00;;;2.30;;
11034;SDS011;5571;48.110;-1.706;2023-02-05T13:52:13;4.47;;;2.43;;
11034;SDS011;5571;48.110;-1.706;2023-02-05T14:00:28;6.38;;;2.60;;
11034;SDS011;5571;48.110;-1.706;2023-02-05T14:02:55;5.28;;;2.38;;
11034;SDS011;5571;48.110;-1.706;2023-02-05T14:05:29;2.90;;;2.15;;
11034;SDS011;5571;48.110;-1.706;2023-02-05T14:07:57;2.75;;;2.00;;
11034;SDS011;5571;48.110;-1.706;2023-02-05T14:15:46;4.88;;;2.10;;
11034;SDS011;5571;48.110;-1.706;2023-02-05T14:23:54;3.20;;;1.90;;
11034;SDS011;5571;48.110;-1.706;2023-02-05T14:27:13;4.10;;;2.20;;
11034;SDS011;5571;48.110;-1.706;2023-02-05T14:29:36;6.13;;;2.27;;
11034;SDS011;5571;48.110;-1.706;2023-02-05T14:39:56;7.25;;;2.22;;
11034;SDS011;5571;48.110;-1.706;2023-02-05T14:42:23;6.15;;;2.47;;
11034;SDS011;5571;48.110;-1.706;2023-02-05T14:44:53;4.07;;;2.53;;
11034;SDS011;5571;48.110;-1.706;2023-02-05T14:49:57;6.32;;;2.05;;
11034;SDS011;5571;48.110;-1.706;2023-02-05T14:52:35;3.63;;;1.90;;
11034;SDS011;5571;48.110;-1.706;2023-02-05T14:55:14;4.90;;;1.98;;
11034;SDS011;5571;48.110;-1.706;2023-02-05T15:11:06;2.88;;;1.90;;
11034;SDS011;5571;48.110;-1.706;2023-02-05T15:16:46;2.58;;;1.90;;
11034;SDS011;5571;48.110;-1.706;2023-02-05T15:19:36;4.85;;;1.83;;
11034;SDS011;5571;48.110;-1.706;2023-02-05T15:22:15;3.45;;;1.50;;
11034;SDS011;5571;48.110;-1.706;2023-02-05T15:25:03;2.50;;;1.70;;
11034;SDS011;5571;48.110;-1.706;2023-02-05T15:27:42;3.00;;;1.60;;
11034;SDS011;5571;48.110;-1.706;2023-02-05T15:30:21;4.73;;;1.90;;
11034;SDS011;5571;48.110;-1.706;2023-02-05T15:35:23;2.67;;;1.50;;
11034;SDS011;5571;48.110;-1.706;2023-02-05T15:38:19;4.90;;;1.80;;
11034;SDS011;5571;48.110;-1.706;2023-02-05T15:40:48;3.70;;;1.60;;
11034;SDS011;5571;48.110;-1.706;2023-02-05T15:43:16;7.97;;;1.80;;
11034;SDS011;5571;48.110;-1.706;2023-02-05T15:45:45;5.47;;;1.87;;
11034;SDS011;5571;48.110;-1.706;2023-02-05T15:48:12;4.57;;;1.87;;
11034;SDS011;5571;48.110;-1.706;2023-02-05T15:50:47;3.20;;;1.70;;
11034;SDS011;5571;48.110;-1.706;2023-02-05T15:56:21;6.73;;;1.80;;
11034;SDS011;5571;48.110;-1.706;2023-02-05T15:59:11;4.13;;;1.73;;
11034;SDS011;5571;48.110;-1.706;2023-02-05T16:01:44;4.60;;;1.90;;
11034;SDS011;5571;48.110;-1.706;2023-02-05T16:04:19;6.33;;;1.70;;
11034;SDS011;5571;48.110;-1.706;2023-02-05T16:06:52;5.37;;;1.90;;
11034;SDS011;5571;48.110;-1.706;2023-02-05T16:09:18;2.67;;;1.50;;
11034;SDS011;5571;48.110;-1.706;2023-02-05T16:11:45;3.80;;;1.40;;
11034;SDS011;5571;48.110;-1.706;2023-02-05T16:14:13;3.33;;;1.70;;
11034;SDS011;5571;48.110;-1.706;2023-02-05T16:24:59;3.40;;;1.50;;
11034;SDS011;5571;48.110;-1.706;2023-02-05T16:27:40;3.67;;;1.60;;
11034;SDS011;5571;48.110;-1.706;2023-02-05T16:30:19;4.37;;;1.67;;
11034;SDS011;5571;48.110;-1.706;2023-02-05T16:32:50;4.53;;;1.83;;
11034;SDS011;5571;48.110;-1.706;2023-02-05T16:37:47;5.77;;;3.40;;
11034;SDS011;5571;48.110;-1.706;2023-02-05T16:40:13;5.27;;;2.53;;
11034;SDS011;5571;48.110;-1.706;2023-02-05T16:42:40;5.28;;;2.20;;
11034;SDS011;5571;48.110;-1.706;2023-02-05T16:47:44;6.03;;;2.10;;
11034;SDS011;5571;48.110;-1.706;2023-02-05T16:50:41;4.73;;;1.87;;
11034;SDS011;5571;48.110;-1.706;2023-02-05T16:53:12;4.03;;;1.90;;
11034;SDS011;5571;48.110;-1.706;2023-02-05T16:55:41;6.10;;;2.33;;
11034;SDS011;5571;48.110;-1.706;2023-02-05T16:58:09;5.60;;;2.10;;
11034;SDS011;5571;48.110;-1.706;2023-02-05T17:00:40;5.50;;;1.87;;
11034;SDS011;5571;48.110;-1.706;2023-02-05T17:03:07;6.77;;;2.10;;
11034;SDS011;5571;48.110;-1.706;2023-02-05T17:05:41;7.10;;;2.13;;
11034;SDS011;5571;48.110;-1.706;2023-02-05T17:08:08;6.40;;;2.33;;
11034;SDS011;5571;48.110;-1.706;2023-02-05T17:10:49;7.30;;;2.10;;
11034;SDS011;5571;48.110;-1.706;2023-02-05T17:16:24;9.33;;;2.00;;
11034;SDS011;5571;48.110;-1.706;2023-02-05T17:18:57;5.57;;;2.33;;
11034;SDS011;5571;48.110;-1.706;2023-02-05T17:21:31;3.47;;;1.83;;
11034;SDS011;5571;48.110;-1.706;2023-02-05T17:23:58;6.63;;;2.07;;
11034;SDS011;5571;48.110;-1.706;2023-02-05T17:26:27;5.77;;;2.60;;
11034;SDS011;5571;48.110;-1.706;2023-02-05T17:28:57;6.93;;;2.60;;
11034;SDS011;5571;48.110;-1.706;2023-02-05T17:31:25;5.23;;;2.70;;
11034;SDS011;5571;48.110;-1.706;2023-02-05T17:33:53;9.70;;;2.23;;
11034;SDS011;5571;48.110;-1.706;2023-02-05T17:36:20;5.90;;;2.50;;
11034;SDS011;5571;48.110;-1.706;2023-02-05T17:38:45;8.53;;;2.70;;
11034;SDS011;5571;48.110;-1.706;2023-02-05T17:41:16;7.67;;;3.00;;
11034;SDS011;5571;48.110;-1.706;2023-02-05T17:44:03;7.20;;;2.53;;
11034;SDS011;5571;48.110;-1.706;2023-02-05T17:46:29;6.77;;;2.70;;
11034;SDS011;5571;48.110;-1.706;2023-02-05T17:48:55;8.93;;;2.90;;
11034;SDS011;5571;48.110;-1.706;2023-02-05T17:51:21;8.27;;;2.90;;
11034;SDS011;5571;48.110;-1.706;2023-02-05T17:53:48;9.93;;;2.70;;
11034;SDS011;5571;48.110;-1.706;2023-02-05T17:56:14;5.43;;;3.10;;
11034;SDS011;5571;48.110;-1.706;2023-02-05T17:58:40;7.93;;;2.83;;
11034;SDS011;5571;48.110;-1.706;2023-02-05T18:01:06;7.87;;;2.90;;
11034;SDS011;5571;48.110;-1.706;2023-02-05T18:03:33;7.43;;;3.20;;
11034;SDS011;5571;48.110;-1.706;2023-02-05T18:05:58;7.60;;;2.90;;
11034;SDS011;5571;48.110;-1.706;2023-02-05T18:08:24;11.33;;;3.30;;
11034;SDS011;5571;48.110;-1.706;2023-02-05T18:10:50;9.70;;;2.93;;
11034;SDS011;5571;48.110;-1.706;2023-02-05T18:13:15;9.73;;;3.20;;
11034;SDS011;5571;48.110;-1.706;2023-02-05T18:15:42;11.50;;;3.47;;
11034;SDS011;5571;48.110;-1.706;2023-02-05T18:18:08;8.00;;;3.20;;
11034;SDS011;5571;48.110;-1.706;2023-02-05T18:20:33;14.30;;;3.23;;